createdAt,value
2023-04-13T00:04:13.534Z,10.11
2023-04-13T00:09:12.988Z,10.16
2023-04-13T00:14:12.139Z,10.31
2023-04-13T00:19:13.089Z,10.41
2023-04-13T00:24:11.956Z,10.42
2023-04-13T00:29:10.625Z,10.54
2023-04-13T00:34:09.326Z,10.61
2023-04-13T00:39:09.465Z,10.41
2023-04-13T00:44:10.726Z,10.53
2023-04-13T00:49:09.556Z,10.39
2023-04-13T00:54:10.796Z,10.41
2023-04-13T00:59:12.599Z,10.32
2023-04-13T01:04:11.460Z,10.42
2023-04-13T01:09:16.580Z,10.34
2023-04-13T01:14:23.723Z,10.32
2023-04-13T01:19:41.442Z,10.19
2023-04-13T01:24:58.593Z,10.12
2023-04-13T01:30:01.444Z,10.08
2023-04-13T01:35:01.172Z,10.13
2023-04-13T01:40:00.396Z,10.17
2023-04-13T01:45:17.417Z,10.12
2023-04-13T01:50:25.948Z,9.88
2023-04-13T01:55:42.976Z,9.84
2023-04-13T02:00:44.585Z,9.84
2023-04-13T02:05:45.051Z,9.87
2023-04-13T02:10:44.120Z,9.82
2023-04-13T02:15:48.014Z,9.71
2023-04-13T02:20:46.976Z,9.68
2023-04-13T02:25:48.232Z,9.58
2023-04-13T02:30:49.788Z,9.40
2023-04-13T02:35:49.023Z,9.46
2023-04-13T02:40:49.518Z,9.48
2023-04-13T02:45:49.981Z,9.32
2023-04-13T02:50:51.246Z,9.45
2023-04-13T02:55:55.666Z,9.47
2023-04-13T03:00:56.753Z,9.43
2023-04-13T03:05:56.646Z,9.45
2023-04-13T03:11:11.014Z,9.41
2023-04-13T03:16:17.834Z,9.47
2023-04-13T03:21:17.296Z,9.45
2023-04-13T03:26:27.689Z,9.53
2023-04-13T03:31:33.495Z,9.56
2023-04-13T03:36:32.925Z,9.54
2023-04-13T03:41:32.212Z,9.48
2023-04-13T03:46:33.349Z,9.20
2023-04-13T03:51:38.127Z,9.22
2023-04-13T03:56:37.035Z,9.04
2023-04-13T04:01:37.814Z,8.96
2023-04-13T04:06:37.646Z,9.06
2023-04-13T04:11:44.735Z,9.17
2023-04-13T04:16:46.309Z,9.22
2023-04-13T04:21:47.545Z,9.15
2023-04-13T04:26:50.633Z,9.08
2023-04-13T04:31:53.797Z,9.19
2023-04-13T04:36:57.411Z,9.22
2023-04-13T04:42:04.259Z,9.28
2023-04-13T04:47:06.142Z,9.26
2023-04-13T04:52:13.036Z,9.43
2023-04-13T04:57:14.667Z,9.49
2023-04-13T05:02:16.788Z,9.53
2023-04-13T05:07:17.901Z,9.44
2023-04-13T05:12:17.753Z,9.60
2023-04-13T05:17:20.292Z,9.75
2023-04-13T05:22:19.390Z,9.66
2023-04-13T05:27:23.936Z,9.67
2023-04-13T05:32:27.166Z,9.85
2023-04-13T05:37:29.065Z,9.88
2023-04-13T05:42:28.122Z,10.12
2023-04-13T05:47:30.469Z,10.34
2023-04-13T05:52:34.880Z,10.40
2023-04-13T05:57:34.779Z,10.30
2023-04-13T06:02:42.054Z,10.28
2023-04-13T06:07:44.964Z,10.38
2023-04-13T06:12:44.706Z,10.30
2023-04-13T06:17:45.833Z,10.20
2023-04-13T06:22:44.786Z,10.44
2023-04-13T06:27:44.634Z,10.73
2023-04-13T06:32:43.546Z,10.94
2023-04-13T06:37:45.497Z,11.03
2023-04-13T06:42:49.824Z,11.16
2023-04-13T06:48:08.910Z,11.25
2023-04-13T06:53:11.409Z,11.41
2023-04-13T06:58:11.820Z,11.37
2023-04-13T07:03:10.946Z,11.42
2023-04-13T07:08:11.861Z,11.36
2023-04-13T07:13:12.807Z,11.51
2023-04-13T07:18:13.055Z,11.74
2023-04-13T07:23:13.393Z,11.58
2023-04-13T07:28:12.740Z,12.04
2023-04-13T07:33:12.284Z,12.09
2023-04-13T07:38:11.483Z,12.24
2023-04-13T07:43:12.022Z,12.42
2023-04-13T07:48:13.037Z,12.62
2023-04-13T07:53:13.217Z,12.63
2023-04-13T07:58:14.327Z,12.79
2023-04-13T08:03:13.580Z,12.90
2023-04-13T08:08:12.719Z,13.02
2023-04-13T08:13:15.522Z,13.23
2023-04-13T08:18:15.678Z,13.44
2023-04-13T08:23:14.804Z,13.53
2023-04-13T08:28:15.178Z,13.75
2023-04-13T08:33:14.352Z,13.64
2023-04-13T08:38:14.276Z,13.94
2023-04-13T08:43:21.274Z,14.21
2023-04-13T08:48:23.166Z,14.73
2023-04-13T08:53:23.337Z,15.46
2023-04-13T08:58:28.502Z,16.14
2023-04-13T09:03:31.086Z,17.18
2023-04-13T09:08:34.724Z,18.35
2023-04-13T09:13:37.390Z,19.45
2023-04-13T09:18:36.527Z,20.35
2023-04-13T09:23:41.149Z,21.37
2023-04-13T09:28:50.880Z,21.55
2023-04-13T09:33:51.272Z,21.68
2023-04-13T09:38:53.708Z,22.68
2023-04-13T09:43:54.060Z,22.29
2023-04-13T09:49:00.477Z,23.39
2023-04-13T09:53:59.647Z,23.51
2023-04-13T09:59:00.135Z,22.82
2023-04-13T10:03:59.665Z,23.34
2023-04-13T10:09:03.387Z,24.45
2023-04-13T10:14:09.235Z,24.70
2023-04-13T10:19:12.625Z,24.96
2023-04-13T10:24:13.308Z,25.12
2023-04-13T10:29:14.923Z,24.86
2023-04-13T10:34:31.626Z,25.33
2023-04-13T10:39:32.559Z,25.74
2023-04-13T10:44:44.400Z,26.13
2023-04-13T10:49:44.131Z,25.63
2023-04-13T10:54:44.531Z,25.28
2023-04-13T10:59:58.150Z,25.98
2023-04-13T11:04:58.663Z,26.24
2023-04-13T11:15:01.753Z,24.51
2023-04-13T11:20:09.973Z,25.60
2023-04-13T11:25:10.782Z,25.75
2023-04-13T11:30:13.358Z,26.07
2023-04-13T11:35:16.676Z,26.80
2023-04-13T11:40:21.517Z,26.77
2023-04-13T11:45:23.494Z,26.78
2023-04-13T11:50:22.900Z,27.26
2023-04-13T11:55:24.025Z,27.30
2023-04-13T12:00:26.685Z,28.93
2023-04-13T12:05:29.214Z,29.62
2023-04-13T12:10:39.202Z,30.59
2023-04-13T12:16:05.278Z,30.34
2023-04-13T12:21:06.557Z,29.73
2023-04-13T12:31:12.458Z,27.47
2023-04-13T12:36:11.856Z,28.15
2023-04-13T12:41:11.500Z,28.98
2023-04-13T12:46:12.535Z,28.97
2023-04-13T12:51:11.801Z,27.57
2023-04-13T12:56:11.123Z,28.73
2023-04-13T13:01:09.952Z,29.55
2023-04-13T13:06:10.385Z,29.55
2023-04-13T13:11:09.313Z,30.42
2023-04-13T13:16:08.455Z,30.66
2023-04-13T13:21:07.443Z,30.54
2023-04-13T13:26:23.314Z,31.11
2023-04-13T13:31:23.742Z,32.11
2023-04-13T13:36:22.555Z,32.12
2023-04-13T13:41:23.630Z,32.42
2023-04-13T13:46:22.796Z,32.11
2023-04-13T13:51:22.905Z,32.44
2023-04-13T13:56:23.478Z,32.57
2023-04-13T14:01:22.361Z,32.49
2023-04-13T14:06:21.453Z,32.40
2023-04-13T14:11:20.392Z,31.77
2023-04-13T14:16:20.986Z,31.12
2023-04-13T14:21:21.636Z,31.33
2023-04-13T14:26:20.804Z,30.95
2023-04-13T14:31:21.271Z,31.96
2023-04-13T14:36:19.829Z,33.03
2023-04-13T14:41:18.539Z,32.60
2023-04-13T14:46:17.488Z,31.27
2023-04-13T14:51:18.745Z,31.38
2023-04-13T14:56:18.056Z,31.63
2023-04-13T15:01:18.047Z,32.06
2023-04-13T15:06:19.035Z,31.42
2023-04-13T15:11:17.718Z,32.03
2023-04-13T15:16:17.013Z,32.37
2023-04-13T15:21:15.782Z,32.26
2023-04-13T15:26:19.296Z,32.36
2023-04-13T15:31:19.429Z,32.46
2023-04-13T15:36:19.143Z,32.51
2023-04-13T15:41:20.094Z,32.18
2023-04-13T15:46:18.858Z,31.45
2023-04-13T15:51:17.629Z,31.08
2023-04-13T15:56:16.605Z,30.74
2023-04-13T16:01:17.016Z,30.26
2023-04-13T16:06:15.672Z,30.30
2023-04-13T16:11:14.376Z,29.80
2023-04-13T16:16:15.083Z,29.60
2023-04-13T16:21:19.264Z,29.62
2023-04-13T16:26:17.890Z,29.20
2023-04-13T16:31:17.135Z,28.92
2023-04-13T16:36:17.333Z,28.15
2023-04-13T16:41:16.933Z,27.46
2023-04-13T16:46:16.383Z,27.03
2023-04-13T16:51:17.189Z,26.37
2023-04-13T16:56:17.382Z,25.64
2023-04-13T17:01:16.249Z,25.10
2023-04-13T17:06:15.222Z,24.75
2023-04-13T17:11:13.956Z,24.38
2023-04-13T17:16:14.240Z,23.99
2023-04-13T17:21:13.759Z,23.59
2023-04-13T17:26:12.553Z,23.12
2023-04-13T17:31:11.473Z,22.85
2023-04-13T17:36:11.767Z,22.52
2023-04-13T17:41:11.130Z,22.25
2023-04-13T17:46:09.995Z,21.90
2023-04-13T17:51:11.874Z,21.70
2023-04-13T17:56:15.789Z,21.49
2023-04-13T18:01:14.706Z,21.31
2023-04-13T18:06:15.056Z,21.11
2023-04-13T18:11:16.831Z,20.92
2023-04-13T18:16:15.875Z,20.67
2023-04-13T18:21:19.352Z,20.52
2023-04-13T18:26:18.261Z,20.34
2023-04-13T18:31:17.147Z,20.16
2023-04-13T18:36:17.839Z,20.01
2023-04-13T18:41:16.649Z,19.81
2023-04-13T18:46:15.604Z,19.50
2023-04-13T18:51:16.787Z,19.32
2023-04-13T18:56:17.068Z,19.18
2023-04-13T19:01:17.474Z,19.08
2023-04-13T19:06:16.562Z,18.93
2023-04-13T19:11:17.909Z,18.78
2023-04-13T19:16:16.792Z,18.70
2023-04-13T19:21:15.758Z,18.58
2023-04-13T19:26:14.412Z,18.42
2023-04-13T19:31:14.812Z,18.34
2023-04-13T19:36:14.909Z,18.28
2023-04-13T19:41:14.137Z,18.20
2023-04-13T19:46:14.702Z,17.73
2023-04-13T19:51:13.491Z,17.47
2023-04-13T19:56:12.335Z,17.34
2023-04-13T20:01:13.650Z,17.05
2023-04-13T20:06:14.190Z,17.01
2023-04-13T20:11:13.014Z,16.97
2023-04-13T20:16:12.130Z,16.65
2023-04-13T20:21:11.012Z,16.50
2023-04-13T20:26:11.189Z,16.60
2023-04-13T20:31:10.360Z,16.60
2023-04-13T20:36:09.417Z,16.54
2023-04-13T20:41:08.226Z,16.40
2023-04-13T20:46:10.109Z,16.32
2023-04-13T20:51:09.842Z,16.29
2023-04-13T20:56:09.105Z,16.30
2023-04-13T21:01:09.484Z,16.33
2023-04-13T21:06:08.467Z,16.29
2023-04-13T21:11:07.320Z,16.27
2023-04-13T21:16:08.700Z,16.24
2023-04-13T21:21:09.334Z,16.33
2023-04-13T21:26:08.340Z,16.28
2023-04-13T21:31:07.523Z,16.18
2023-04-13T21:41:16.042Z,16.23
2023-04-13T21:46:16.438Z,16.23
2023-04-13T21:51:16.854Z,16.17
2023-04-13T21:56:17.542Z,16.11
2023-04-13T22:01:16.568Z,16.08
2023-04-13T22:06:16.889Z,16.07
2023-04-13T22:11:16.121Z,16.05
2023-04-13T22:16:15.075Z,15.95
2023-04-13T22:21:13.947Z,15.79
2023-04-13T22:26:14.258Z,15.69
2023-04-13T22:31:13.078Z,15.67
2023-04-13T22:36:19.578Z,15.65
2023-04-13T22:41:20.062Z,15.65
2023-04-13T22:46:19.434Z,15.65
2023-04-13T22:51:18.222Z,15.60
2023-04-13T22:56:17.241Z,15.48
2023-04-13T23:01:17.481Z,15.35
2023-04-13T23:06:16.294Z,15.28
2023-04-13T23:11:15.173Z,15.26
2023-04-13T23:16:13.990Z,15.23
2023-04-13T23:21:14.557Z,15.15
2023-04-13T23:26:13.283Z,15.13
2023-04-13T23:31:12.149Z,15.10
2023-04-13T23:36:11.816Z,15.14
2023-04-13T23:41:12.236Z,15.15
2023-04-13T23:46:11.276Z,15.12
2023-04-13T23:51:10.065Z,15.08
2023-04-13T23:56:09.215Z,15.05
